createdAt,value
2022-10-31T00:01:20.331Z,34.00
2022-10-31T00:06:23.171Z,22.90
2022-10-31T00:11:26.160Z,25.38
2022-10-31T00:16:30.850Z,28.02
2022-10-31T00:21:33.889Z,28.90
2022-10-31T00:26:36.216Z,25.25
2022-10-31T00:31:39.666Z,29.98
2022-10-31T00:36:41.739Z,17.95
2022-10-31T00:41:43.912Z,20.00
2022-10-31T00:46:47.344Z,24.08
2022-10-31T00:51:49.562Z,19.95
2022-10-31T00:56:51.815Z,24.33
2022-10-31T01:01:55.343Z,19.85
2022-10-31T01:06:57.553Z,22.30
2022-10-31T01:11:59.661Z,23.27
2022-10-31T01:17:03.456Z,22.70
2022-10-31T01:22:05.567Z,19.60
2022-10-31T01:27:07.812Z,23.45
2022-10-31T01:32:11.433Z,20.05
2022-10-31T01:37:13.513Z,15.52
2022-10-31T01:42:20.862Z,15.93
2022-10-31T01:47:40.745Z,13.38
2022-10-31T01:52:44.921Z,14.60
2022-10-31T01:57:50.457Z,17.13
2022-10-31T02:02:57.037Z,17.98
2022-10-31T02:08:03.839Z,12.23
2022-10-31T02:13:07.457Z,10.55
2022-10-31T02:18:11.255Z,7.55
2022-10-31T02:23:47.842Z,6.63
2022-10-31T02:29:19.302Z,6.25
2022-10-31T02:34:28.409Z,6.75
2022-10-31T02:39:39.160Z,5.53
2022-10-31T02:44:49.128Z,6.35
2022-10-31T02:49:58.129Z,6.57
2022-10-31T02:55:00.471Z,5.57
2022-10-31T03:00:05.725Z,5.70
2022-10-31T03:05:25.468Z,5.20
2022-10-31T03:10:36.439Z,5.07
2022-10-31T03:15:41.772Z,6.00
2022-10-31T03:20:50.108Z,6.13
2022-10-31T03:25:54.980Z,5.88
2022-10-31T03:31:00.404Z,6.57
2022-10-31T03:36:10.025Z,5.72
2022-10-31T03:41:18.522Z,5.32
2022-10-31T03:46:20.746Z,5.13
2022-10-31T03:51:28.677Z,6.13
2022-10-31T03:56:35.661Z,6.35
2022-10-31T04:01:42.202Z,7.55
2022-10-31T04:06:47.944Z,6.78
2022-10-31T04:11:53.768Z,7.25
2022-10-31T04:16:56.302Z,6.80
2022-10-31T04:21:59.777Z,6.50
2022-10-31T04:27:01.828Z,5.93
2022-10-31T04:32:03.927Z,7.40
2022-10-31T04:37:07.397Z,6.20
2022-10-31T04:42:09.487Z,5.88
2022-10-31T04:47:11.543Z,7.75
2022-10-31T04:52:15.265Z,7.03
2022-10-31T04:57:17.293Z,7.45
2022-10-31T05:02:19.391Z,8.48
2022-10-31T05:07:22.868Z,6.30
2022-10-31T05:12:24.967Z,8.90
2022-10-31T05:17:27.033Z,6.85
2022-10-31T05:22:30.438Z,14.68
2022-10-31T05:27:32.516Z,9.38
2022-10-31T05:32:39.589Z,7.88
2022-10-31T05:37:43.058Z,8.32
2022-10-31T05:42:46.000Z,7.22
2022-10-31T05:47:53.109Z,6.80
2022-10-31T05:53:01.981Z,9.20
2022-10-31T05:58:04.424Z,10.18
2022-10-31T06:08:12.728Z,22.38
2022-10-31T06:13:14.862Z,12.57
2022-10-31T06:18:16.901Z,13.88
2022-10-31T06:23:20.396Z,18.95
2022-10-31T06:28:22.505Z,15.63
2022-10-31T06:33:24.630Z,27.58
2022-10-31T06:38:29.633Z,19.98
2022-10-31T06:43:31.763Z,23.77
2022-10-31T06:48:37.528Z,11.30
2022-10-31T06:53:40.980Z,16.75
2022-10-31T06:58:43.426Z,23.13
2022-10-31T07:03:45.778Z,15.48
2022-10-31T07:08:49.233Z,12.70
2022-10-31T07:13:51.430Z,16.23
2022-10-31T07:18:53.857Z,8.75
2022-10-31T07:23:58.743Z,15.07
2022-10-31T07:29:01.065Z,10.10
2022-10-31T07:34:03.851Z,10.90
2022-10-31T07:39:07.299Z,13.95
2022-10-31T07:44:12.342Z,11.40
2022-10-31T07:49:17.388Z,13.05
2022-10-31T07:54:20.880Z,12.23
2022-10-31T07:59:23.247Z,11.40
2022-10-31T08:04:25.717Z,12.43
2022-10-31T08:09:31.734Z,13.10
2022-10-31T08:14:36.385Z,13.07
2022-10-31T08:19:44.143Z,15.40
2022-10-31T08:24:47.607Z,22.70
2022-10-31T08:29:50.095Z,21.63
2022-10-31T08:34:55.131Z,25.65
2022-10-31T08:39:58.568Z,16.90
2022-10-31T08:45:00.706Z,20.38
2022-10-31T08:50:03.228Z,16.48
2022-10-31T08:55:07.825Z,18.08
2022-10-31T09:00:11.676Z,16.80
2022-10-31T09:05:16.586Z,18.45
2022-10-31T09:10:20.104Z,20.17
2022-10-31T09:15:23.336Z,19.20
2022-10-31T09:20:25.709Z,24.75
2022-10-31T09:25:29.587Z,22.63
2022-10-31T09:30:34.110Z,23.60
2022-10-31T09:35:36.215Z,23.10
2022-10-31T09:40:41.401Z,23.75
2022-10-31T09:45:54.173Z,21.85
2022-10-31T09:51:00.854Z,25.00
2022-10-31T09:56:08.319Z,25.15
2022-10-31T10:01:22.506Z,23.48
2022-10-31T10:06:27.754Z,29.67
2022-10-31T10:11:42.433Z,28.17
2022-10-31T10:17:06.388Z,29.75
2022-10-31T10:22:14.594Z,31.90
2022-10-31T10:27:46.611Z,30.83
2022-10-31T10:32:52.581Z,37.88
2022-10-31T10:38:02.632Z,28.10
2022-10-31T10:43:24.772Z,33.38
2022-10-31T10:48:39.019Z,32.28
2022-10-31T10:54:05.222Z,35.28
2022-10-31T10:59:18.406Z,35.08
2022-10-31T11:04:37.407Z,38.83
2022-10-31T11:09:40.295Z,37.53
2022-10-31T11:14:50.279Z,36.55
2022-10-31T11:20:04.524Z,48.63
2022-10-31T11:25:23.413Z,35.35
2022-10-31T11:30:26.839Z,38.85
2022-10-31T11:35:30.643Z,39.60
2022-10-31T11:40:32.804Z,39.92
2022-10-31T11:45:39.667Z,40.38
2022-10-31T11:50:43.426Z,44.60
2022-10-31T11:55:46.875Z,39.50
2022-10-31T12:00:59.283Z,39.47
2022-10-31T12:06:07.077Z,37.97
2022-10-31T12:11:19.077Z,47.35
2022-10-31T12:16:34.168Z,43.08
2022-10-31T12:22:06.674Z,49.28
2022-10-31T12:27:22.138Z,57.65
2022-10-31T12:32:40.807Z,54.20
2022-10-31T12:37:54.942Z,52.95
2022-10-31T12:43:10.211Z,57.08
2022-10-31T12:48:44.445Z,66.22
2022-10-31T12:54:00.167Z,59.72
2022-10-31T12:59:10.123Z,64.25
2022-10-31T13:04:18.955Z,67.03
2022-10-31T13:09:27.426Z,67.70
2022-10-31T13:14:41.263Z,63.03
2022-10-31T13:19:47.503Z,78.80
2022-10-31T13:24:55.599Z,76.15
2022-10-31T13:30:04.208Z,68.38
2022-10-31T13:35:15.612Z,73.07
2022-10-31T13:40:32.829Z,74.13
2022-10-31T13:45:35.031Z,81.55
2022-10-31T13:50:41.943Z,78.47
2022-10-31T13:55:46.233Z,74.85
2022-10-31T14:00:48.989Z,69.45
2022-10-31T14:05:57.098Z,85.93
2022-10-31T14:10:59.500Z,88.22
2022-10-31T14:16:04.883Z,95.50
2022-10-31T14:21:37.838Z,94.53
2022-10-31T14:26:40.014Z,87.50
2022-10-31T14:31:45.936Z,88.15
2022-10-31T14:37:01.171Z,78.22
2022-10-31T14:42:19.881Z,80.00
2022-10-31T14:47:32.652Z,77.88
2022-10-31T14:52:38.649Z,88.88
2022-10-31T14:57:51.270Z,93.25
2022-10-31T15:03:06.983Z,82.72
2022-10-31T15:08:28.803Z,99.65
2022-10-31T15:13:30.966Z,92.95
2022-10-31T15:18:33.087Z,89.05
2022-10-31T15:23:37.360Z,89.50
2022-10-31T15:28:39.531Z,92.18
2022-10-31T15:33:48.121Z,91.68
2022-10-31T15:38:52.751Z,90.20
2022-10-31T15:43:55.038Z,103.30
2022-10-31T15:48:57.471Z,98.03
2022-10-31T15:54:02.100Z,88.28
2022-10-31T15:59:04.553Z,112.90
2022-10-31T16:04:21.556Z,88.50
2022-10-31T16:09:26.234Z,103.55
2022-10-31T16:14:30.594Z,84.95
2022-10-31T16:19:34.668Z,89.82
2022-10-31T16:24:48.145Z,97.55
2022-10-31T16:29:50.275Z,87.18
2022-10-31T16:35:00.588Z,82.68
2022-10-31T16:40:04.235Z,69.57
2022-10-31T16:45:08.178Z,65.93
2022-10-31T16:50:16.137Z,55.88
2022-10-31T16:55:21.615Z,59.80
2022-10-31T17:00:26.664Z,75.32
2022-10-31T17:05:30.698Z,58.40
2022-10-31T17:10:35.288Z,84.78
2022-10-31T17:15:44.437Z,64.18
2022-10-31T17:20:47.386Z,53.17
2022-10-31T17:25:51.236Z,57.10
2022-10-31T17:30:56.455Z,47.03
2022-10-31T17:35:59.385Z,51.87
2022-10-31T17:41:10.091Z,42.20
2022-10-31T17:46:13.989Z,41.53
2022-10-31T17:51:16.371Z,45.50
2022-10-31T17:56:20.246Z,40.53
2022-10-31T18:01:22.527Z,42.35
2022-10-31T18:06:25.008Z,34.58
2022-10-31T18:11:29.062Z,46.08
2022-10-31T18:16:31.366Z,50.72
2022-10-31T18:21:34.944Z,40.95
2022-10-31T18:26:39.618Z,29.38
2022-10-31T18:31:41.723Z,27.17
2022-10-31T18:36:44.573Z,24.30
2022-10-31T18:41:48.160Z,29.75
2022-10-31T18:46:50.960Z,21.67
2022-10-31T18:51:56.629Z,22.65
2022-10-31T18:57:00.947Z,20.13
2022-10-31T19:02:04.040Z,22.00
2022-10-31T19:07:06.975Z,19.00
2022-10-31T19:12:11.397Z,13.35
2022-10-31T19:17:13.906Z,15.15
2022-10-31T19:22:17.352Z,15.23
2022-10-31T19:27:21.698Z,14.07
2022-10-31T19:32:25.313Z,14.32
2022-10-31T19:37:28.477Z,16.90
2022-10-31T19:42:34.557Z,18.52
2022-10-31T19:47:36.994Z,18.30
2022-10-31T19:52:39.492Z,17.27
2022-10-31T20:03:06.183Z,18.73
2022-10-31T20:08:08.481Z,20.92
2022-10-31T20:13:14.964Z,19.50
2022-10-31T20:18:18.068Z,18.15
2022-10-31T20:23:22.071Z,18.83
2022-10-31T20:28:27.095Z,17.08
2022-10-31T20:33:29.724Z,20.45
2022-10-31T20:38:32.043Z,19.23
2022-10-31T20:43:36.516Z,20.30
2022-10-31T20:48:41.202Z,17.20
2022-10-31T20:53:44.701Z,17.50
2022-10-31T20:58:49.425Z,19.27
2022-10-31T21:03:52.646Z,20.15
2022-10-31T21:08:55.221Z,22.45
2022-10-31T21:14:02.343Z,21.60
2022-10-31T21:19:06.026Z,21.15
2022-10-31T21:24:09.887Z,23.05
2022-10-31T21:29:14.999Z,25.15
2022-10-31T21:34:17.223Z,20.00
2022-10-31T21:39:19.561Z,19.77
2022-10-31T21:44:23.194Z,16.85
2022-10-31T21:49:25.283Z,18.35
2022-10-31T21:54:31.325Z,19.55
2022-10-31T21:59:34.994Z,21.23
2022-10-31T22:04:37.297Z,16.75
2022-10-31T22:09:41.385Z,21.67
2022-10-31T22:14:45.019Z,20.00
2022-10-31T22:19:49.927Z,21.80
2022-10-31T22:24:52.197Z,26.15
2022-10-31T22:29:56.854Z,19.90
2022-10-31T22:34:59.024Z,19.17
2022-10-31T22:40:01.231Z,27.10
2022-10-31T22:45:05.145Z,20.45
2022-10-31T22:50:07.849Z,20.88
2022-10-31T22:55:10.979Z,19.63
2022-10-31T23:00:15.133Z,22.63
2022-10-31T23:05:17.421Z,20.40
2022-10-31T23:10:19.695Z,19.77
2022-10-31T23:15:23.133Z,20.35
2022-10-31T23:20:25.258Z,24.05
2022-10-31T23:25:44.843Z,21.98
2022-10-31T23:30:48.488Z,20.45
2022-10-31T23:35:50.628Z,19.55
2022-10-31T23:40:53.127Z,19.05
2022-10-31T23:45:56.599Z,19.77
2022-10-31T23:50:58.701Z,21.65
2022-10-31T23:56:00.833Z,19.08
